Time;durP1;ratioP1;P1;durP2;ratioP2;P2;SDS_P1;SDS_P2;PMS_P1;PMS_P2;Temp;Humidity;BMP_temperature;BMP_pressure;BME280_temperature;BME280_humidity;BME280_pressure;Samples;Min_cycle;Max_cycle;Signal;HPM_P1;HPM_P2
2023/07/27 00:03:33;;;;;;;4.03;2.20;;;;;;;16.80;92.07;99510.75;12190211;19;20060;-81
2023/07/27 00:07:34;;;;;;;6.15;2.60;;;;;;;16.81;92.19;99506.84;12212008;19;20926;-82
2023/07/27 00:11:36;;;;;;;8.97;2.33;;;;;;;16.81;92.04;99504.06;12208819;19;20010;-81
2023/07/27 00:15:38;;;;;;;4.10;2.20;;;;;;;16.82;91.83;99494.59;12189375;19;20060;-82
2023/07/27 00:19:40;;;;;;;4.07;2.42;;;;;;;16.84;90.65;99497.06;12200731;19;20585;-82
2023/07/27 00:23:42;;;;;;;5.63;2.45;;;;;;;16.87;90.49;99490.09;12184211;19;20023;-80
2023/07/27 00:27:44;;;;;;;5.23;2.50;;;;;;;16.82;90.82;99499.31;12203566;19;20021;-82
2023/07/27 00:31:45;;;;;;;6.38;2.78;;;;;;;16.83;90.93;99496.22;12202528;19;20014;-81
2023/07/27 00:35:56;;;;;;;6.40;2.55;;;;;;;16.83;91.14;99487.88;12187908;19;20137;-81
2023/07/27 00:40:00;;;;;;;6.45;2.63;;;;;;;16.85;91.29;99485.63;12203357;19;20043;-81
2023/07/27 00:44:02;;;;;;;4.03;2.63;;;;;;;16.89;90.81;99488.63;12209471;19;20011;-83
2023/07/27 00:48:04;;;;;;;5.95;2.55;;;;;;;16.93;90.74;99477.75;12186945;19;20427;-83
2023/07/27 00:52:07;;;;;;;;;;;;;;;16.88;91.56;99469.47;12207480;19;20073;-82
2023/07/27 00:56:09;;;;;;;4.85;2.50;;;;;;;16.90;91.33;99464.44;12211848;19;19950;-81
2023/07/27 01:00:13;;;;;;;7.77;3.57;;;;;;;16.90;91.64;99461.66;12185054;19;20006;-82
2023/07/27 01:04:15;;;;;;;4.25;2.40;;;;;;;16.87;92.13;99459.47;12209084;19;20006;-82
2023/07/27 01:08:17;;;;;;;4.55;2.75;;;;;;;16.82;92.72;99449.22;12205741;19;20074;-83
2023/07/27 01:12:24;;;;;;;6.38;3.05;;;;;;;16.81;92.74;99451.19;12181563;19;20011;-83
2023/07/27 01:16:44;;;;;;;4.05;2.40;;;;;;;16.79;93.02;99436.75;12211600;19;20014;-83
2023/07/27 01:20:53;;;;;;;5.15;2.65;;;;;;;16.78;93.78;99434.28;12185166;19;20500;-82
2023/07/27 01:25:00;;;;;;;4.82;2.63;;;;;;;16.75;93.88;99434.84;12193810;19;20368;-83
2023/07/27 01:29:22;;;;;;;5.43;2.80;;;;;;;16.74;94.11;99431.22;12202970;19;20030;-83
2023/07/27 01:33:40;;;;;;;7.28;2.80;;;;;;;16.74;93.89;99419.25;12182051;19;20446;-84
2023/07/27 01:37:44;;;;;;;5.15;2.90;;;;;;;16.75;94.28;99421.75;12209327;19;20106;-82
2023/07/27 01:41:47;;;;;;;6.93;3.22;;;;;;;16.74;94.71;99417.31;12175552;19;20973;-79
2023/07/27 01:45:50;;;;;;;5.85;2.42;;;;;;;16.72;94.99;99414.00;12217659;19;20015;-83
2023/07/27 01:49:54;;;;;;;5.10;2.58;;;;;;;16.70;95.91;99396.78;12229135;19;20038;-83
2023/07/27 01:53:57;;;;;;;6.68;2.63;;;;;;;16.68;96.04;99401.00;12205135;19;20011;-83
2023/07/27 01:58:00;;;;;;;6.35;2.75;;;;;;;16.67;95.85;99391.81;12229385;19;20018;-82
2023/07/27 02:02:02;;;;;;;;;;;;;;;16.63;97.35;99379.66;12224866;19;20024;-82
2023/07/27 02:06:05;;;;;;;5.32;2.80;;;;;;;16.60;97.35;99391.38;12207625;19;19910;-83
2023/07/27 02:10:10;;;;;;;7.22;3.50;;;;;;;16.59;97.78;99381.38;12224491;19;20093;-82
2023/07/27 02:14:45;;;;;;;5.93;2.80;;;;;;;16.53;98.86;99374.22;12227212;19;20074;-82
2023/07/27 02:18:49;;;;;;;5.27;3.03;;;;;;;16.52;99.13;99361.44;12207546;19;20453;-82
2023/07/27 02:22:53;;;;;;;4.78;2.85;;;;;;;16.53;99.22;99363.91;12222563;19;20015;-81
2023/07/27 02:26:55;;;;;;;5.07;2.47;;;;;;;16.51;99.34;99357.84;12201009;19;20014;-82
2023/07/27 02:30:57;;;;;;;5.35;3.13;;;;;;;16.52;100.00;99350.31;12226466;19;20599;-83
2023/07/27 02:34:59;;;;;;;5.03;2.80;;;;;;;16.49;99.92;99345.38;12227343;19;20003;-84
2023/07/27 02:39:02;;;;;;;5.60;3.20;;;;;;;16.46;100.00;99351.53;12203753;19;20002;-82
2023/07/27 02:43:04;;;;;;;6.53;2.70;;;;;;;16.41;100.00;99356.03;12217110;19;20013;-81
2023/07/27 02:47:05;;;;;;;4.77;2.53;;;;;;;16.42;100.00;99351.31;12224701;19;20465;-82
2023/07/27 02:51:08;;;;;;;7.38;2.97;;;;;;;16.43;100.00;99346.56;12200472;19;20015;-82
2023/07/27 02:55:09;;;;;;;4.97;2.90;;;;;;;16.43;100.00;99347.38;12221758;19;20031;-83
2023/07/27 02:59:12;;;;;;;5.80;2.10;;;;;;;16.45;100.00;99352.63;12215041;19;20070;-83
2023/07/27 03:03:18;;;;;;;5.55;2.63;;;;;;;16.45;100.00;99353.50;12188403;19;20065;-83
2023/07/27 03:07:21;;;;;;;4.45;2.70;;;;;;;16.46;100.00;99351.53;12211463;19;20010;-81
2023/07/27 03:11:23;;;;;;;7.15;2.50;;;;;;;16.45;100.00;99350.72;12208846;19;20019;-80
2023/07/27 03:15:25;;;;;;;5.97;2.78;;;;;;;16.45;100.00;99353.50;12194194;19;20011;-83
2023/07/27 03:19:27;;;;;;;4.93;2.80;;;;;;;16.46;100.00;99348.75;12212501;19;20078;-82
2023/07/27 03:23:29;;;;;;;6.85;2.85;;;;;;;16.47;100.00;99347.63;12210099;19;20070;-82
2023/07/27 03:27:30;;;;;;;7.93;2.78;;;;;;;16.47;100.00;99347.63;12187642;19;20021;-82
2023/07/27 03:31:32;;;;;;;7.78;3.38;;;;;;;16.45;100.00;99347.06;12204764;19;20007;-81
2023/07/27 03:35:35;;;;;;;5.63;2.88;;;;;;;16.47;100.00;99344.84;12216670;19;20006;-83
2023/07/27 03:39:37;;;;;;;7.35;2.17;;;;;;;16.47;100.00;99333.72;12193038;19;20010;-83
2023/07/27 03:43:40;;;;;;;3.42;2.45;;;;;;;16.48;100.00;99336.19;12205536;19;20481;-82
2023/07/27 03:47:42;;;;;;;5.10;2.80;;;;;;;16.49;100.00;99326.72;12188479;19;20026;-82
2023/07/27 03:51:47;;;;;;;7.63;2.75;;;;;;;16.47;100.00;99328.16;12206452;19;20396;-81
2023/07/27 03:55:48;;;;;;;7.15;3.00;;;;;;;16.47;100.00;99319.81;12210836;19;20010;-84
2023/07/27 03:59:55;;;;;;;3.95;2.10;;;;;;;16.47;100.00;99309.50;12184991;19;20334;-82
2023/07/27 04:03:57;;;;;;;3.80;2.50;;;;;;;16.46;100.00;99307.84;12205461;19;20017;-83
2023/07/27 04:07:59;;;;;;;4.78;2.35;;;;;;;16.43;100.00;99296.50;12206146;19;20338;-84
2023/07/27 04:12:00;;;;;;;3.83;2.40;;;;;;;16.35;100.00;99301.59;12183175;19;20017;-83
2023/07/27 04:16:02;;;;;;;3.25;2.13;;;;;;;16.34;100.00;99304.69;12209455;19;20444;-83
2023/07/27 04:20:05;;;;;;;6.78;2.67;;;;;;;16.36;100.00;99303.28;12206115;19;20059;-83
2023/07/27 04:24:07;;;;;;;12.40;3.17;;;;;;;16.41;100.00;99294.03;12182294;19;20031;-84
2023/07/27 04:28:08;;;;;;;4.50;1.93;;;;;;;16.50;100.00;99288.59;12203539;19;20041;-83
2023/07/27 04:32:10;;;;;;;6.00;2.60;;;;;;;16.57;100.00;99289.06;12204957;19;20040;-83
2023/07/27 04:36:12;;;;;;;4.10;2.40;;;;;;;16.60;100.00;99291.25;12187329;19;20024;-84
2023/07/27 04:40:14;;;;;;;4.53;2.28;;;;;;;16.65;100.00;99291.13;12201803;19;20013;-83
2023/07/27 04:44:16;;;;;;;3.92;2.03;;;;;;;16.68;100.00;99292.50;12202025;19;20817;-81
2023/07/27 04:48:18;;;;;;;6.40;2.47;;;;;;;16.71;100.00;99289.94;12183429;19;20118;-81
2023/07/27 04:52:20;;;;;;;3.33;2.30;;;;;;;16.73;100.00;99296.03;12202196;19;20745;-82
2023/07/27 04:56:22;;;;;;;5.93;2.90;;;;;;;16.75;100.00;99302.13;12203312;19;20014;-82
2023/07/27 05:00:24;;;;;;;4.20;2.22;;;;;;;16.82;100.00;99294.22;12183935;19;20011;-82
2023/07/27 05:04:25;;;;;;;6.10;2.40;;;;;;;16.85;100.00;99287.25;12202341;19;20038;-81
2023/07/27 05:08:27;;;;;;;4.22;1.92;;;;;;;16.85;100.00;99281.69;12204736;19;20014;-81
2023/07/27 05:12:31;;;;;;;5.20;2.85;;;;;;;16.88;100.00;99280.25;12183676;19;20081;-83
2023/07/27 05:16:33;;;;;;;3.83;2.20;;;;;;;16.95;100.00;99272.31;12212160;19;20007;-83
2023/07/27 05:20:35;;;;;;;5.35;3.03;;;;;;;16.99;100.00;99276.97;12202869;19;20056;-84
2023/07/27 05:24:38;;;;;;;6.30;2.28;;;;;;;17.05;100.00;99281.31;12179559;19;20018;-82
2023/07/27 05:28:40;;;;;;;6.97;2.60;;;;;;;17.16;100.00;99270.81;12203145;19;20010;-82
2023/07/27 05:32:41;;;;;;;4.43;2.60;;;;;;;17.27;100.00;99277.03;12179780;19;20078;-83
2023/07/27 05:36:43;;;;;;;3.78;2.72;;;;;;;17.32;100.00;99268.59;12210608;19;20019;-80
2023/07/27 05:40:45;;;;;;;4.47;2.65;;;;;;;17.39;100.00;99269.00;12205713;19;20031;-83
2023/07/27 05:44:47;;;;;;;9.18;2.95;;;;;;;17.41;100.00;99266.72;12179982;19;20003;-83
2023/07/27 05:48:48;;;;;;;7.13;2.80;;;;;;;17.38;100.00;99255.38;12205990;19;20537;-84
2023/07/27 05:52:50;;;;;;;7.28;2.97;;;;;;;17.39;100.00;99245.88;12202631;19;20018;-83
2023/07/27 05:56:52;;;;;;;4.78;2.60;;;;;;;17.46;100.00;99236.00;12182271;19;20022;-84
2023/07/27 06:01:03;;;;;;;4.53;2.53;;;;;;;17.58;100.00;99243.84;12201721;19;20047;-84
2023/07/27 06:05:06;;;;;;;5.05;2.42;;;;;;;17.68;100.00;99248.38;12202019;19;20023;-81
2023/07/27 06:09:09;;;;;;;5.40;2.42;;;;;;;17.68;100.00;99240.84;12182334;19;20006;-84
2023/07/27 06:13:11;;;;;;;4.80;2.50;;;;;;;17.68;100.00;99235.25;12200875;19;20030;-83
2023/07/27 06:17:13;;;;;;;4.65;2.38;;;;;;;17.67;100.00;99236.41;12208771;19;20010;-81
2023/07/27 06:21:14;;;;;;;4.68;2.75;;;;;;;17.62;100.00;99236.50;12180034;19;20010;-83
2023/07/27 06:25:16;;;;;;;6.05;2.80;;;;;;;17.63;100.00;99238.13;12203353;19;20035;-84
2023/07/27 06:29:18;;;;;;;6.03;2.67;;;;;;;17.54;100.00;99226.06;12200683;19;20015;-86
2023/07/27 06:33:20;;;;;;;3.88;2.72;;;;;;;17.41;100.00;99221.34;12181198;19;20094;-83
2023/07/27 06:37:22;;;;;;;3.75;2.22;;;;;;;17.37;100.00;99214.72;12201858;19;20018;-83
2023/07/27 06:41:25;;;;;;;5.22;2.60;;;;;;;17.39;100.00;99218.03;12194083;19;20070;-82
2023/07/27 06:45:27;;;;;;;5.22;2.80;;;;;;;17.34;100.00;99221.78;12198799;19;20383;-82
2023/07/27 06:49:28;;;;;;;5.75;2.55;;;;;;;17.23;100.00;99212.78;12221051;19;20021;-83
2023/07/27 06:53:33;;;;;;;5.57;2.92;;;;;;;17.19;100.00;99217.31;12232156;19;20010;-83
2023/07/27 06:57:34;;;;;;;6.00;2.88;;;;;;;17.19;100.00;99216.47;12215764;19;20011;-83
2023/07/27 07:01:37;;;;;;;5.45;2.47;;;;;;;17.06;100.00;99215.34;12240514;19;20018;-83
2023/07/27 07:05:39;;;;;;;6.22;2.78;;;;;;;16.99;100.00;99223.28;12219648;19;20541;-84
2023/07/27 07:09:42;;;;;;;8.00;2.75;;;;;;;16.87;100.00;99218.19;12236629;19;20026;-84
2023/07/27 07:13:44;;;;;;;7.10;2.88;;;;;;;16.79;100.00;99221.69;12236960;19;20007;-82
2023/07/27 07:17:46;;;;;;;5.70;2.83;;;;;;;16.79;100.00;99221.69;12216343;19;20011;-84
2023/07/27 07:21:48;;;;;;;5.22;2.83;;;;;;;16.75;100.00;99220.63;12229074;19;20015;-85
2023/07/27 07:25:49;;;;;;;5.72;3.22;;;;;;;16.74;100.00;99217.00;12230909;19;20019;-84
2023/07/27 07:29:51;;;;;;;5.45;3.30;;;;;;;16.70;100.00;99218.75;12204546;19;20042;-85
2023/07/27 07:33:53;;;;;;;6.53;3.55;;;;;;;16.51;100.00;99220.72;12223783;19;20505;-84
2023/07/27 07:37:54;;;;;;;5.43;3.65;;;;;;;16.37;100.00;99229.84;12227374;19;20006;-84
2023/07/27 07:41:56;;;;;;;5.28;3.22;;;;;;;16.27;100.00;99232.81;12196796;19;20015;-85
2023/07/27 07:45:59;;;;;;;6.03;3.20;;;;;;;16.15;100.00;99224.06;12227847;19;20011;-85
2023/07/27 07:50:00;;;;;;;6.70;3.83;;;;;;;16.05;100.00;99213.94;12224103;19;20337;-84
2023/07/27 07:54:05;;;;;;;9.15;3.53;;;;;;;15.90;100.00;99203.88;12199363;19;20090;-83
2023/07/27 07:58:06;;;;;;;8.27;4.25;;;;;;;15.84;100.00;99196.75;12220291;19;20046;-83
2023/07/27 08:02:08;;;;;;;7.55;4.13;;;;;;;16.00;100.00;99193.72;12214893;19;20521;-85
2023/07/27 08:06:11;;;;;;;5.97;3.88;;;;;;;16.07;100.00;99196.97;12193869;19;20014;-83
2023/07/27 08:10:13;;;;;;;6.63;3.75;;;;;;;15.94;100.00;99184.66;12206434;19;20018;-84
2023/07/27 08:14:15;;;;;;;8.80;3.83;;;;;;;15.83;100.00;99183.16;12210957;19;20038;-83
2023/07/27 08:18:17;;;;;;;5.55;3.67;;;;;;;15.81;100.00;99174.28;12188257;19;20049;-83
2023/07/27 08:22:18;;;;;;;5.95;3.95;;;;;;;15.84;100.00;99173.69;12208032;19;20501;-83
2023/07/27 08:26:20;;;;;;;7.55;4.80;;;;;;;15.69;100.00;99156.13;12211232;19;20025;-83
2023/07/27 08:30:22;;;;;;;6.72;3.47;;;;;;;15.61;100.00;99156.75;12189239;19;20010;-83
2023/07/27 08:34:24;;;;;;;5.25;3.30;;;;;;;15.56;100.00;99139.34;12211657;19;20169;-83
2023/07/27 08:38:25;;;;;;;9.07;4.22;;;;;;;15.53;100.00;99146.34;12212569;19;20862;-83
2023/07/27 08:42:28;;;;;;;6.82;4.03;;;;;;;15.52;100.00;99138.28;12182781;19;20010;-82
2023/07/27 08:46:31;;;;;;;6.18;3.20;;;;;;;15.42;100.00;99128.97;12206486;19;20524;-82
2023/07/27 08:50:35;;;;;;;6.03;3.97;;;;;;;15.39;100.00;99115.69;12210150;19;20006;-81
2023/07/27 08:54:36;;;;;;;5.15;3.03;;;;;;;15.38;100.00;99113.22;12187366;19;20023;-83
2023/07/27 08:58:39;;;;;;;8.27;3.60;;;;;;;15.39;100.00;99117.66;12211460;19;20082;-84
2023/07/27 09:02:40;;;;;;;5.80;3.75;;;;;;;15.31;100.00;99093.31;12184133;19;20006;-84
2023/07/27 09:06:44;;;;;;;7.07;4.05;;;;;;;15.33;100.00;99118.84;12207675;19;20647;-85
2023/07/27 09:10:46;;;;;;;7.63;3.88;;;;;;;15.41;100.00;99124.56;12203186;19;20082;-85
2023/07/27 09:14:48;;;;;;;5.25;3.47;;;;;;;15.62;100.00;99133.44;12183862;19;20084;-85
2023/07/27 09:18:50;;;;;;;7.03;4.15;;;;;;;15.87;100.00;99111.97;12212730;19;20124;-84
2023/07/27 09:22:54;;;;;;;6.07;3.50;;;;;;;16.13;100.00;99127.09;12206223;19;20035;-85
2023/07/27 09:26:56;;;;;;;6.53;3.58;;;;;;;16.40;100.00;99119.97;12185152;19;20026;-83
2023/07/27 09:31:02;;;;;;;6.55;3.90;;;;;;;16.58;100.00;99121.88;12206288;19;20529;-84
2023/07/27 09:35:06;;;;;;;5.90;3.40;;;;;;;16.56;100.00;99124.13;12207487;19;20361;-82
2023/07/27 09:39:09;;;;;;;5.57;3.80;;;;;;;16.49;100.00;99120.09;12193605;19;20366;-84
2023/07/27 09:43:11;;;;;;;7.53;3.45;;;;;;;16.39;100.00;99133.06;12202164;19;20039;-83
2023/07/27 09:47:20;;;;;;;7.85;4.40;;;;;;;16.40;100.00;99123.59;12201558;19;20074;-84
2023/07/27 09:51:25;;;;;;;9.15;4.60;;;;;;;16.43;100.00;99115.78;12185047;19;20006;-82
2023/07/27 09:55:29;;;;;;;5.88;3.83;;;;;;;16.72;100.00;99123.88;12211907;19;20010;-82
2023/07/27 09:59:31;;;;;;;6.63;4.00;;;;;;;16.84;100.00;99113.91;12185767;19;20010;-81
2023/07/27 10:03:33;;;;;;;6.15;3.97;;;;;;;16.94;100.00;99112.03;12189476;19;20015;-83
2023/07/27 10:07:35;;;;;;;6.32;4.40;;;;;;;16.98;100.00;99113.06;12225948;19;20477;-83
2023/07/27 10:11:55;;;;;;;6.60;3.88;;;;;;;16.78;100.00;99106.78;12202609;19;20010;-83
2023/07/27 10:15:57;;;;;;;8.93;4.13;;;;;;;16.62;100.00;99111.78;12230381;19;20030;-82
2023/07/27 10:20:19;;;;;;;5.80;4.20;;;;;;;16.48;100.00;99101.75;12220203;19;20421;-80
2023/07/27 10:24:24;;;;;;;6.57;4.20;;;;;;;16.45;100.00;99094.88;12195981;19;20015;-82
2023/07/27 10:28:30;;;;;;;7.82;4.80;;;;;;;16.51;100.00;99096.44;12218979;19;20021;-82
2023/07/27 10:32:35;;;;;;;10.02;4.45;;;;;;;16.68;100.00;99090.25;12218642;19;20059;-80
2023/07/27 10:36:58;;;;;;;8.73;4.30;;;;;;;16.79;100.00;99094.50;12201658;19;19999;-82
2023/07/27 10:41:13;;;;;;;9.57;4.13;;;;;;;16.85;100.00;99092.47;12219152;19;20379;-82
2023/07/27 10:45:26;;;;;;;11.65;4.60;;;;;;;16.83;100.00;99094.72;12197150;19;20014;-85
2023/07/27 10:49:28;;;;;;;8.15;4.55;;;;;;;16.67;100.00;99101.69;12218329;19;20018;-84
2023/07/27 10:53:30;;;;;;;7.67;5.57;;;;;;;16.46;100.00;99085.38;12217627;19;20096;-83
2023/07/27 10:57:33;;;;;;;7.72;5.40;;;;;;;16.33;100.00;99077.84;12200555;19;20057;-84
2023/07/27 11:01:35;;;;;;;7.65;4.72;;;;;;;16.32;100.00;99079.78;12214626;19;20046;-81
2023/07/27 11:05:38;;;;;;;7.50;4.90;;;;;;;16.35;100.00;99079.19;12218116;19;20015;-82
2023/07/27 11:09:45;;;;;;;7.70;4.18;;;;;;;16.55;100.00;99068.81;12195582;19;20027;-84
2023/07/27 11:13:47;;;;;;;9.60;5.10;;;;;;;16.63;100.00;99071.72;12218406;19;20007;-82
2023/07/27 11:17:51;;;;;;;9.50;5.28;;;;;;;16.71;100.00;99069.34;12196986;19;20835;-84
2023/07/27 11:21:54;;;;;;;7.68;4.85;;;;;;;16.74;100.00;99065.94;12217377;19;20022;-83
2023/07/27 11:25:57;;;;;;;9.40;4.88;;;;;;;16.78;100.00;99078.97;12216240;19;20082;-85
2023/07/27 11:29:59;;;;;;;7.80;4.85;;;;;;;16.77;100.00;99068.94;12194715;19;20020;-84
2023/07/27 11:34:02;;;;;;;9.52;5.15;;;;;;;16.91;100.00;99054.22;12214800;19;20009;-84
2023/07/27 11:38:04;;;;;;;9.18;4.70;;;;;;;17.02;100.00;99050.09;12217803;19;20011;-83
2023/07/27 11:42:10;;;;;;;7.07;4.40;;;;;;;16.96;100.00;99048.56;12202354;19;20003;-85
2023/07/27 11:46:12;;;;;;;9.00;4.55;;;;;;;16.94;100.00;99039.69;12213995;19;20011;-84
2023/07/27 11:50:16;;;;;;;9.27;4.10;;;;;;;16.96;100.00;99032.69;12215711;19;20034;-84
2023/07/27 11:54:27;;;;;;;8.68;4.07;;;;;;;16.92;100.00;99042.78;12196221;19;20038;-86
2023/07/27 11:58:30;;;;;;;6.82;3.95;;;;;;;16.85;100.00;99043.19;12219811;19;20017;-84
2023/07/27 12:02:33;;;;;;;7.95;3.78;;;;;;;16.82;100.00;99046.59;12213648;19;20010;-85
2023/07/27 12:06:35;;;;;;;8.43;3.92;;;;;;;16.79;100.00;99050.00;12191804;19;19998;-84
2023/07/27 12:10:38;;;;;;;7.95;4.10;;;;;;;16.88;100.00;99046.50;12212122;19;20831;-83
2023/07/27 12:14:59;;;;;;;5.00;3.77;;;;;;;17.12;100.00;99040.69;12192080;19;20042;-84
2023/07/27 12:19:02;;;;;;;8.43;4.17;;;;;;;17.31;100.00;99055.28;12213088;19;20451;-82
2023/07/27 12:23:04;;;;;;;8.27;3.88;;;;;;;17.39;100.00;99050.94;12212592;19;20014;-81
2023/07/27 12:27:09;;;;;;;8.35;4.45;;;;;;;17.43;100.00;99052.81;12193984;19;20020;-83
2023/07/27 12:31:13;;;;;;;7.78;4.50;;;;;;;17.44;100.00;99048.06;12211045;19;20072;-84
2023/07/27 12:35:35;;;;;;;5.85;4.13;;;;;;;17.41;100.00;99045.91;12218405;19;20714;-86
2023/07/27 12:39:39;;;;;;;7.65;3.92;;;;;;;17.33;100.00;99041.88;12195380;19;20409;-84
2023/07/27 12:43:41;;;;;;;6.38;4.10;;;;;;;17.19;100.00;99047.50;12212665;19;20062;-85
2023/07/27 12:47:43;;;;;;;5.38;3.70;;;;;;;17.11;100.00;99039.06;12192852;19;20003;-84
2023/07/27 12:51:45;;;;;;;5.88;3.80;;;;;;;17.14;100.00;99038.44;12212434;19;20037;-85
2023/07/27 12:55:48;;;;;;;6.53;4.03;;;;;;;17.13;100.00;99037.59;12216134;19;20022;-86
2023/07/27 12:59:49;;;;;;;5.60;4.13;;;;;;;17.09;100.00;99031.81;12195596;19;20023;-83
2023/07/27 13:03:51;;;;;;;8.73;5.18;;;;;;;17.09;100.00;99023.47;12211558;19;20063;-85
2023/07/27 13:07:53;;;;;;;8.60;4.57;;;;;;;17.21;100.00;99030.47;12217311;19;20030;-85
2023/07/27 13:11:55;;;;;;;6.30;4.68;;;;;;;17.34;100.00;99026.84;12189925;19;20025;-85
2023/07/27 13:15:58;;;;;;;7.78;4.40;;;;;;;17.42;100.00;99022.47;12211793;19;20027;-85
2023/07/27 13:19:59;;;;;;;7.03;4.10;;;;;;;17.49;100.00;99011.69;12219086;19;20103;-83
2023/07/27 13:24:02;;;;;;;9.55;4.30;;;;;;;17.51;100.00;99021.41;12192861;19;19999;-86
2023/07/27 13:28:04;;;;;;;9.75;4.75;;;;;;;17.53;100.00;99018.31;12215091;19;20027;-84
2023/07/27 13:32:06;;;;;;;11.63;4.93;;;;;;;17.51;100.00;99012.22;12215348;19;20014;-85
2023/07/27 13:36:08;;;;;;;9.20;5.28;;;;;;;17.44;100.00;99017.41;12197480;19;20031;-85
2023/07/27 13:40:10;;;;;;;11.32;5.03;;;;;;;17.42;100.00;99020.50;12224654;19;20018;-83
2023/07/27 13:44:12;;;;;;;7.82;4.93;;;;;;;17.42;100.00;99014.13;12213875;19;20011;-82
2023/07/27 13:48:14;;;;;;;7.03;4.60;;;;;;;17.52;100.00;99019.47;12197595;19;20577;-82
2023/07/27 13:52:20;;;;;;;7.47;5.20;;;;;;;17.64;100.00;99019.72;12224407;19;20046;-81
2023/07/27 13:56:22;;;;;;;10.15;5.13;;;;;;;17.87;100.00;99016.94;12217322;19;20011;-81
2023/07/27 14:00:24;;;;;;;8.55;5.28;;;;;;;17.99;100.00;99011.63;12199507;19;20007;-81
2023/07/27 14:04:26;;;;;;;7.00;4.82;;;;;;;18.05;100.00;99001.97;12211303;19;20022;-80
2023/07/27 14:08:29;;;;;;;;;;;;;;;18.02;100.00;99007.38;12217164;19;20027;-81
2023/07/27 14:12:30;;;;;;;10.23;5.97;;;;;;;18.12;100.00;99007.13;12188687;19;19918;-81
2023/07/27 14:16:32;;;;;;;8.45;5.25;;;;;;;18.27;100.00;99005.88;12215276;19;20070;-80
2023/07/27 14:20:34;;;;;;;8.70;6.07;;;;;;;18.34;100.00;99009.84;12217995;19;20027;-79
2023/07/27 14:24:36;;;;;;;11.20;6.10;;;;;;;18.66;100.00;99017.03;12194021;19;20033;-78
2023/07/27 14:28:37;;;;;;;8.05;5.40;;;;;;;18.76;100.00;99002.00;12214194;19;20473;-79
2023/07/27 14:32:40;;;;;;;9.50;5.82;;;;;;;18.78;100.00;99001.69;12213917;19;20078;-80
2023/07/27 14:36:42;;;;;;;8.73;5.30;;;;;;;18.74;100.00;99006.25;12217092;19;20014;-79
2023/07/27 14:40:45;;;;;;;9.55;5.88;;;;;;;18.65;100.00;99006.22;12214406;19;20625;-80
2023/07/27 14:44:48;;;;;;;10.55;5.80;;;;;;;18.90;100.00;98996.28;12194031;19;20010;-80
2023/07/27 14:48:50;;;;;;;10.60;6.43;;;;;;;19.27;100.00;99002.41;12220122;19;20011;-81
2023/07/27 14:52:51;;;;;;;9.20;5.97;;;;;;;19.44;100.00;98996.84;12221642;19;20014;-80
2023/07/27 14:56:53;;;;;;;9.27;5.50;;;;;;;19.69;100.00;98995.22;12209897;19;20019;-79
2023/07/27 15:00:55;;;;;;;8.25;5.80;;;;;;;20.11;100.00;98998.28;12225205;19;20014;-80
2023/07/27 15:04:57;;;;;;;8.38;5.47;;;;;;;20.22;100.00;99007.94;12227834;19;20011;-79
2023/07/27 15:09:03;;;;;;;9.68;5.38;;;;;;;20.19;100.00;98991.81;12204011;19;20014;-83
2023/07/27 15:13:12;;;;;;;6.93;4.65;;;;;;;20.38;100.00;98988.66;12231327;19;20043;-80
2023/07/27 15:17:14;;;;;;;8.45;4.53;;;;;;;20.61;100.00;98994.00;12228873;19;20015;-81
2023/07/27 15:21:16;;;;;;;7.63;5.10;;;;;;;20.70;100.00;98994.78;12199626;19;20046;-83
2023/07/27 15:25:18;;;;;;;6.70;4.57;;;;;;;20.55;100.00;98989.75;12218611;19;20526;-85
2023/07/27 15:29:19;;;;;;;8.52;5.28;;;;;;;20.51;100.00;98983.97;12220389;19;20018;-87
2023/07/27 15:33:21;;;;;;;9.00;4.95;;;;;;;20.35;100.00;98983.72;12190737;19;20014;-86
2023/07/27 15:37:42;;;;;;;8.48;5.43;;;;;;;20.10;100.00;98990.22;12236317;19;20365;-88
2023/07/27 15:41:45;;;;;;;13.07;6.05;;;;;;;19.87;100.00;98984.84;12212138;19;20011;-87
2023/07/27 15:45:48;;;;;;;9.75;4.68;;;;;;;19.77;100.00;98982.38;12215944;19;20011;-86
2023/07/27 15:49:50;;;;;;;8.73;5.07;;;;;;;19.73;100.00;98987.00;12218548;19;20018;-84
2023/07/27 15:53:52;;;;;;;8.13;4.73;;;;;;;19.72;100.00;98985.34;12196667;19;20025;-85
2023/07/27 15:57:53;;;;;;;8.15;4.90;;;;;;;19.69;100.00;98983.22;12213394;19;20010;-83
2023/07/27 16:01:55;;;;;;;10.18;6.13;;;;;;;19.62;100.00;98982.88;12208327;19;20116;-83
2023/07/27 16:06:03;;;;;;;11.88;7.13;;;;;;;19.53;100.00;98983.69;12187309;19;20010;-81
2023/07/27 16:10:06;;;;;;;10.85;6.75;;;;;;;19.46;100.00;98980.59;12207356;19;20069;-83
2023/07/27 16:14:07;;;;;;;10.27;6.30;;;;;;;19.44;100.00;98980.06;12214464;19;20037;-83
2023/07/27 16:18:09;;;;;;;11.98;7.00;;;;;;;19.42;100.00;98981.56;12190642;19;20007;-82
2023/07/27 16:22:12;;;;;;;8.77;5.23;;;;;;;19.38;100.00;98986.16;12210575;19;20027;-81
2023/07/27 16:26:14;;;;;;;;;;;;;;;19.37;100.00;98985.34;12211578;19;20247;-83
2023/07/27 16:30:15;;;;;;;7.18;4.95;;;;;;;19.45;100.00;98978.91;12189702;19;19915;-82
2023/07/27 16:34:24;;;;;;;11.43;6.28;;;;;;;19.56;100.00;98977.44;12215981;19;20105;-84
2023/07/27 16:38:29;;;;;;;9.50;5.30;;;;;;;19.71;100.00;98983.72;12210949;19;20034;-82
2023/07/27 16:42:31;;;;;;;8.37;5.43;;;;;;;19.79;100.00;98974.50;12186752;19;20038;-81
2023/07/27 16:46:33;;;;;;;9.23;5.07;;;;;;;19.67;100.00;98972.38;12209923;19;20010;-82
2023/07/27 16:50:36;;;;;;;8.50;5.38;;;;;;;19.55;100.00;98969.41;12212572;19;20006;-82
2023/07/27 16:54:37;;;;;;;12.20;5.95;;;;;;;19.44;100.00;98966.09;12195263;19;20010;-84
2023/07/27 16:58:39;;;;;;;12.97;5.90;;;;;;;19.36;100.00;98958.53;12211045;19;20014;-81
2023/07/27 17:02:41;;;;;;;10.17;6.33;;;;;;;19.32;100.00;98957.56;12195869;19;20031;-81
2023/07/27 17:06:43;;;;;;;9.17;5.73;;;;;;;19.26;100.00;98950.50;12209890;19;20030;-81
2023/07/27 17:10:45;;;;;;;10.73;5.88;;;;;;;19.21;100.00;98950.66;12205100;19;20355;-82
2023/07/27 17:14:51;;;;;;;9.75;6.13;;;;;;;19.13;100.00;98950.34;12186655;19;20007;-82
2023/07/27 17:18:53;;;;;;;11.83;6.03;;;;;;;19.08;100.00;98956.06;12212225;19;20011;-82
2023/07/27 17:22:55;;;;;;;16.80;7.57;;;;;;;19.04;100.00;98955.09;12207493;19;20042;-82
2023/07/27 17:26:56;;;;;;;8.15;5.10;;;;;;;19.05;100.00;98961.50;12186530;19;20032;-83
2023/07/27 17:31:00;;;;;;;9.40;5.93;;;;;;;19.07;100.00;98954.44;12209542;19;20007;-81
2023/07/27 17:35:02;;;;;;;10.25;6.32;;;;;;;19.09;100.00;98963.28;12212887;19;20094;-82
2023/07/27 17:39:03;;;;;;;11.23;5.77;;;;;;;19.05;100.00;98953.94;12187629;19;20028;-82
2023/07/27 17:43:08;;;;;;;10.35;6.13;;;;;;;19.03;100.00;98953.44;12205847;19;20019;-83
2023/07/27 17:47:10;;;;;;;8.18;6.03;;;;;;;19.02;100.00;98950.97;12209400;19;20580;-82
2023/07/27 17:51:12;;;;;;;9.98;6.72;;;;;;;18.97;100.00;98948.34;12189611;19;20453;-84
2023/07/27 17:55:14;;;;;;;10.15;5.88;;;;;;;18.91;100.00;98947.69;12208224;19;20369;-83
2023/07/27 17:59:16;;;;;;;8.90;6.03;;;;;;;18.87;100.00;98957.88;12207969;19;20878;-83
2023/07/27 18:03:18;;;;;;;11.15;7.10;;;;;;;18.80;100.00;98954.72;12184959;19;20010;-82
2023/07/27 18:07:20;;;;;;;12.43;7.47;;;;;;;18.74;100.00;98954.06;12208679;19;20019;-82
2023/07/27 18:11:21;;;;;;;12.02;7.75;;;;;;;18.72;100.00;98944.34;12203311;19;20094;-83
2023/07/27 18:15:23;;;;;;;11.05;7.50;;;;;;;18.66;100.00;98944.47;12202230;19;20010;-83
2023/07/27 18:19:25;;;;;;;11.45;7.32;;;;;;;18.65;100.00;98953.19;12211482;19;20006;-82
2023/07/27 18:23:27;;;;;;;13.85;7.35;;;;;;;18.63;100.00;98955.47;12207993;19;20696;-83
2023/07/27 18:27:29;;;;;;;13.73;7.72;;;;;;;18.60;100.00;98959.75;12190418;19;20010;-83
2023/07/27 18:31:31;;;;;;;13.10;8.05;;;;;;;18.59;100.00;98963.69;12218557;19;20006;-83
2023/07/27 18:35:33;;;;;;;14.63;7.28;;;;;;;18.57;100.00;98948.41;12223843;19;20019;-83
2023/07/27 18:39:36;;;;;;;13.48;8.23;;;;;;;18.57;100.00;98962.34;12198165;19;20019;-82